Time;durP1;ratioP1;P1;durP2;ratioP2;P2;SDS_P1;SDS_P2;PMS_P1;PMS_P2;Temp;Humidity;BMP_temperature;BMP_pressure;BME280_temperature;BME280_humidity;BME280_pressure;Samples;Min_cycle;Max_cycle;Signal;HPM_P1;HPM_P2
2023/05/01 00:00:57;;;;;;;6.50;5.00;;;21.40;38.90;;;;;;5084088;28;20383;-62
2023/05/01 00:03:23;;;;;;;6.18;4.53;;;21.40;39.50;;;;;;5082593;28;20400;-62
2023/05/01 00:05:49;;;;;;;6.15;4.72;;;21.40;38.90;;;;;;5083909;28;20146;-61
2023/05/01 00:08:14;;;;;;;5.53;4.22;;;21.40;38.90;;;;;;5083030;28;20069;-60
2023/05/01 00:10:40;;;;;;;5.53;4.22;;;21.40;38.90;;;;;;5085015;28;20422;-61
2023/05/01 00:13:06;;;;;;;6.40;4.80;;;21.40;38.80;;;;;;5082910;28;20031;-60
2023/05/01 00:15:32;;;;;;;6.05;4.18;;;21.40;38.90;;;;;;5088517;28;20369;-62
2023/05/01 00:17:58;;;;;;;6.05;4.47;;;21.40;38.80;;;;;;5087950;28;20478;-62
2023/05/01 00:20:28;;;;;;;6.00;4.65;;;21.40;38.90;;;;;;5070865;28;20036;-61
2023/05/01 00:22:54;;;;;;;6.15;4.38;;;21.40;38.90;;;;;;5089576;28;20031;-61
2023/05/01 00:25:20;;;;;;;6.32;4.45;;;21.30;38.80;;;;;;5088933;28;20043;-63
2023/05/01 00:27:47;;;;;;;6.97;4.30;;;21.30;38.80;;;;;;5070342;28;20328;-61
2023/05/01 00:30:13;;;;;;;4.65;3.60;;;21.30;38.80;;;;;;5089201;28;20036;-60
2023/05/01 00:32:39;;;;;;;5.65;4.28;;;21.30;38.80;;;;;;5069819;28;20122;-61
2023/05/01 00:35:05;;;;;;;4.60;3.42;;;21.30;38.80;;;;;;5054337;28;20020;-62
2023/05/01 00:37:31;;;;;;;5.82;3.88;;;21.30;38.80;;;;;;5070957;28;20336;-61
2023/05/01 00:39:57;;;;;;;6.47;4.07;;;21.30;38.80;;;;;;5071023;28;20157;-62
2023/05/01 00:42:23;;;;;;;4.55;3.35;;;21.30;38.70;;;;;;5069782;28;20425;-62
2023/05/01 00:44:49;;;;;;;6.30;3.70;;;21.30;38.70;;;;;;5085129;28;20059;-62
2023/05/01 00:47:15;;;;;;;4.38;3.30;;;21.30;38.70;;;;;;5065297;28;20336;-61
2023/05/01 00:49:42;;;;;;;4.68;3.40;;;21.30;38.70;;;;;;5064715;28;20084;-64
2023/05/01 00:52:11;;;;;;;4.38;3.35;;;21.30;38.70;;;;;;5074557;28;20032;-62
2023/05/01 00:54:37;;;;;;;4.75;3.42;;;21.30;38.60;;;;;;5085938;28;20024;-62
2023/05/01 00:57:03;;;;;;;4.03;3.08;;;21.30;38.60;;;;;;5066828;28;20142;-60
2023/05/01 00:59:29;;;;;;;4.68;3.63;;;21.30;38.60;;;;;;5066946;28;20755;-61
2023/05/01 01:01:55;;;;;;;5.28;3.10;;;21.30;38.50;;;;;;5048888;28;20118;-60
2023/05/01 01:04:21;;;;;;;3.80;3.03;;;21.20;38.50;;;;;;5063975;28;20508;-61
2023/05/01 01:06:49;;;;;;;3.63;3.00;;;21.20;38.50;;;;;;5062791;28;20040;-61
2023/05/01 01:09:43;;;;;;;4.20;3.50;;;21.20;38.40;;;;;;5065776;28;20089;-61
2023/05/01 01:12:27;;;;;;;5.13;3.17;;;21.20;38.40;;;;;;5065524;28;20027;-62
2023/05/01 01:15:20;;;;;;;4.57;3.13;;;21.20;38.40;;;;;;5060703;28;20051;-61
2023/05/01 01:18:04;;;;;;;4.30;3.10;;;21.20;38.30;;;;;;5063198;28;20724;-60
2023/05/01 01:20:48;;;;;;;5.63;3.45;;;21.20;38.30;;;;;;5082076;28;20043;-61
2023/05/01 01:23:52;;;;;;;4.18;2.78;;;21.20;38.30;;;;;;5060460;28;20028;-63
2023/05/01 01:26:48;;;;;;;4.75;2.95;;;21.20;38.20;;;;;;5065257;28;20432;-61
2023/05/01 01:29:14;;;;;;;4.22;3.10;;;21.20;38.20;;;;;;5064763;28;20098;-62
2023/05/01 01:32:07;;;;;;;5.18;3.50;;;21.20;38.80;;;;;;5082838;28;20028;-61
2023/05/01 01:34:34;;;;;;;4.20;3.28;;;21.20;38.20;;;;;;5080621;28;20416;-62
2023/05/01 01:37:21;;;;;;;5.57;4.25;;;21.10;38.10;;;;;;5063880;28;20025;-62
2023/05/01 01:40:06;;;;;;;5.30;3.88;;;21.10;38.10;;;;;;5055648;28;20454;-60
2023/05/01 01:42:39;;;;;;;5.55;4.43;;;21.10;38.10;;;;;;5081115;28;20032;-62
2023/05/01 01:45:20;;;;;;;5.40;4.18;;;21.10;38.10;;;;;;5086145;28;20333;-60
2023/05/01 01:47:48;;;;;;;6.22;4.63;;;21.10;38.10;;;;;;5069298;28;20103;-61
2023/05/01 01:50:16;;;;;;;5.40;4.50;;;21.10;38.10;;;;;;5063361;28;20024;-61
2023/05/01 01:52:46;;;;;;;6.00;4.55;;;21.10;38.10;;;;;;5086278;28;20415;-61
2023/05/01 01:55:13;;;;;;;6.78;4.10;;;21.10;38.00;;;;;;5086780;28;20036;-61
2023/05/01 01:57:43;;;;;;;6.97;4.43;;;21.10;38.10;;;;;;5089353;28;20035;-61
2023/05/01 02:00:11;;;;;;;5.55;4.68;;;21.10;38.00;;;;;;5069220;28;20058;-61
2023/05/01 02:02:43;;;;;;;6.35;4.22;;;21.10;38.00;;;;;;5067077;28;20109;-63
2023/05/01 02:05:13;;;;;;;7.60;4.43;;;21.10;38.00;;;;;;5067794;28;20016;-60
2023/05/01 02:07:40;;;;;;;6.25;4.45;;;21.10;37.90;;;;;;5086950;28;20038;-61
2023/05/01 02:10:09;;;;;;;5.03;3.70;;;21.10;38.00;;;;;;5052072;28;20519;-63
2023/05/01 02:12:36;;;;;;;6.40;3.67;;;21.10;38.00;;;;;;5067215;28;20027;-62
2023/05/01 02:15:05;;;;;;;6.30;4.20;;;21.10;38.00;;;;;;5086184;28;20114;-61
2023/05/01 02:17:32;;;;;;;5.07;3.85;;;21.10;37.90;;;;;;5071561;28;20119;-62
2023/05/01 02:19:58;;;;;;;7.13;3.63;;;21.10;37.90;;;;;;5057460;28;20024;-62
2023/05/01 02:22:25;;;;;;;5.38;3.55;;;21.10;37.90;;;;;;5073381;28;20380;-62
2023/05/01 02:24:53;;;;;;;4.97;3.63;;;21.10;38.50;;;;;;5073074;28;20051;-64
2023/05/01 02:27:25;;;;;;;4.60;3.55;;;21.10;37.90;;;;;;5072946;28;20115;-62
2023/05/01 02:29:52;;;;;;;5.93;3.80;;;21.10;37.90;;;;;;5086355;28;20412;-61
2023/05/01 02:32:18;;;;;;;5.18;3.30;;;21.10;37.90;;;;;;5071482;28;20151;-62
2023/05/01 02:34:45;;;;;;;4.88;3.45;;;21.10;37.90;;;;;;5071969;28;20034;-64
2023/05/01 02:37:11;;;;;;;5.07;3.20;;;21.00;37.80;;;;;;5091567;28;20016;-62
2023/05/01 02:39:40;;;;;;;4.47;3.28;;;21.00;37.80;;;;;;5057043;28;20081;-62
2023/05/01 02:42:08;;;;;;;5.05;3.33;;;21.00;37.80;;;;;;5091317;28;20055;-60
2023/05/01 02:44:42;;;;;;;4.40;3.13;;;21.00;37.80;;;;;;5055676;28;20130;-62
2023/05/01 02:47:09;;;;;;;5.28;3.25;;;21.00;37.70;;;;;;5069150;28;20320;-63
2023/05/01 02:49:36;;;;;;;4.38;3.03;;;21.00;37.70;;;;;;5064830;28;20029;-61
2023/05/01 02:52:03;;;;;;;5.60;3.25;;;21.00;37.80;;;;;;5080846;28;20320;-61
2023/05/01 02:54:30;;;;;;;4.93;3.47;;;21.00;37.80;;;;;;5068583;28;20035;-64
2023/05/01 02:56:58;;;;;;;4.20;3.20;;;21.00;37.80;;;;;;5069887;28;20046;-63
2023/05/01 02:59:24;;;;;;;4.40;3.20;;;21.00;37.80;;;;;;5071673;28;20113;-63
2023/05/01 03:01:50;;;;;;;6.72;3.40;;;21.00;37.70;;;;;;5065331;28;20047;-63
2023/05/01 03:04:16;;;;;;;4.38;3.10;;;21.00;37.70;;;;;;5064850;28;20424;-65
2023/05/01 03:06:43;;;;;;;4.35;2.88;;;21.00;37.70;;;;;;5066219;28;20097;-62
2023/05/01 03:09:10;;;;;;;4.45;3.17;;;21.00;37.70;;;;;;5089009;28;20111;-61
2023/05/01 03:11:36;;;;;;;3.53;2.50;;;21.00;37.70;;;;;;5085827;28;20123;-63
2023/05/01 03:14:02;;;;;;;4.80;3.20;;;21.00;38.40;;;;;;5085475;28;20456;-60
2023/05/01 03:16:28;;;;;;;4.60;3.22;;;21.00;37.70;;;;;;5050960;28;20042;-61
2023/05/01 03:18:54;;;;;;;5.70;2.78;;;21.00;37.70;;;;;;5086323;28;20028;-64
2023/05/01 03:21:20;;;;;;;4.15;2.78;;;21.00;37.70;;;;;;5064786;28;20032;-61
2023/05/01 03:23:46;;;;;;;5.05;3.15;;;21.00;37.70;;;;;;5084320;28;20107;-63
2023/05/01 03:26:12;;;;;;;4.38;2.90;;;21.00;37.70;;;;;;5084948;28;20427;-61
2023/05/01 03:28:38;;;;;;;3.40;2.40;;;21.00;37.70;;;;;;5067959;28;20093;-61
2023/05/01 03:31:04;;;;;;;4.03;2.88;;;20.90;37.70;;;;;;5067342;28;20458;-65
2023/05/01 03:33:31;;;;;;;3.85;2.80;;;21.00;37.70;;;;;;5064548;28;20682;-63
2023/05/01 03:36:02;;;;;;;4.18;2.55;;;20.90;37.70;;;;;;5064833;28;20024;-64
2023/05/01 03:38:30;;;;;;;2.65;2.22;;;20.90;37.60;;;;;;5067782;28;20043;-64
2023/05/01 03:41:08;;;;;;;4.43;2.70;;;20.90;37.70;;;;;;5084502;28;20036;-63
2023/05/01 03:44:05;;;;;;;3.20;2.20;;;20.90;37.60;;;;;;5065415;28;20032;-64
2023/05/01 03:46:35;;;;;;;3.28;2.45;;;20.90;37.60;;;;;;5066310;28;20055;-64
2023/05/01 03:49:01;;;;;;;4.70;2.67;;;20.90;37.60;;;;;;5065928;28;20043;-63
2023/05/01 03:51:31;;;;;;;3.80;2.50;;;20.90;37.60;;;;;;5064438;28;20123;-65
2023/05/01 03:53:57;;;;;;;3.83;2.45;;;20.90;37.60;;;;;;5068446;28;20124;-64
2023/05/01 03:56:25;;;;;;;3.92;2.40;;;20.90;37.60;;;;;;5066862;28;20420;-61
2023/05/01 03:58:52;;;;;;;2.90;2.30;;;20.90;37.60;;;;;;5085008;28;20117;-65
2023/05/01 04:01:18;;;;;;;3.10;2.30;;;20.90;37.70;;;;;;5067040;28;20416;-63
2023/05/01 04:03:47;;;;;;;3.80;2.40;;;20.90;37.70;;;;;;5064808;28;20048;-63
2023/05/01 04:06:12;;;;;;;3.25;2.17;;;20.80;37.60;;;;;;5065507;28;20044;-63
2023/05/01 04:08:38;;;;;;;3.58;2.42;;;20.90;37.70;;;;;;5083781;28;20123;-64
2023/05/01 04:11:05;;;;;;;3.78;2.35;;;20.90;37.70;;;;;;5065288;28;20071;-61
2023/05/01 04:13:31;;;;;;;3.33;2.28;;;20.80;37.60;;;;;;5066042;28;20130;-62
2023/05/01 04:15:58;;;;;;;4.10;2.55;;;20.90;37.70;;;;;;5070926;28;20024;-61
2023/05/01 04:18:25;;;;;;;4.00;2.58;;;20.90;37.70;;;;;;5070002;28;20304;-65
2023/05/01 04:20:53;;;;;;;2.78;2.20;;;20.90;37.70;;;;;;5068782;28;20153;-65
2023/05/01 04:23:19;;;;;;;3.25;2.40;;;20.90;37.70;;;;;;5071292;28;20423;-62
2023/05/01 04:25:46;;;;;;;3.08;2.30;;;20.80;37.70;;;;;;5071341;28;20020;-66
2023/05/01 04:28:15;;;;;;;3.53;2.50;;;20.80;37.70;;;;;;5071411;28;20108;-62
2023/05/01 04:30:41;;;;;;;3.63;2.10;;;20.80;37.70;;;;;;5070759;28;20085;-62
2023/05/01 04:33:10;;;;;;;3.08;2.17;;;20.80;37.70;;;;;;5070157;28;20454;-63
2023/05/01 04:35:38;;;;;;;4.05;2.25;;;20.80;37.70;;;;;;5070959;28;20032;-62
2023/05/01 04:38:05;;;;;;;2.90;2.30;;;20.80;37.70;;;;;;5070710;28;20016;-64
2023/05/01 04:40:31;;;;;;;3.58;2.47;;;20.80;37.80;;;;;;5071167;28;20081;-63
2023/05/01 04:42:58;;;;;;;4.28;1.92;;;20.80;37.70;;;;;;5070213;28;20344;-63
2023/05/01 04:45:24;;;;;;;3.05;1.98;;;20.80;37.80;;;;;;5047860;28;20135;-64
2023/05/01 04:47:50;;;;;;;2.20;1.67;;;20.80;37.70;;;;;;5062120;28;20129;-63
2023/05/01 04:50:16;;;;;;;2.92;1.80;;;20.80;37.70;;;;;;5062988;28;20440;-63
2023/05/01 04:52:42;;;;;;;3.58;1.98;;;20.80;37.70;;;;;;5062445;28;20031;-61
2023/05/01 04:55:08;;;;;;;3.17;1.95;;;20.80;37.70;;;;;;5063633;28;20352;-62
2023/05/01 04:57:39;;;;;;;2.58;1.70;;;20.80;37.70;;;;;;5048644;28;20040;-62
2023/05/01 05:00:07;;;;;;;2.95;2.15;;;20.80;37.70;;;;;;5065113;28;20100;-63
2023/05/01 05:02:37;;;;;;;3.08;2.30;;;20.80;37.70;;;;;;5062396;28;20705;-62
2023/05/01 05:05:03;;;;;;;2.95;2.00;;;20.80;37.70;;;;;;5062598;28;20571;-63
2023/05/01 05:07:30;;;;;;;2.25;1.90;;;20.80;37.70;;;;;;5062344;28;20090;-62
2023/05/01 05:10:19;;;;;;;2.38;1.77;;;20.80;37.70;;;;;;5058373;28;20178;-62
2023/05/01 05:12:55;;;;;;;2.80;1.67;;;20.80;37.70;;;;;;5047973;28;20025;-63
2023/05/01 05:15:21;;;;;;;1.75;1.40;;;20.80;37.70;;;;;;5062826;28;20082;-64
2023/05/01 05:17:47;;;;;;;2.75;2.00;;;20.80;37.70;;;;;;5061931;28;20074;-61
2023/05/01 05:20:14;;;;;;;2.70;1.63;;;20.80;37.70;;;;;;5066666;28;20040;-62
2023/05/01 05:22:40;;;;;;;2.60;1.73;;;20.80;37.70;;;;;;5066206;28;20431;-63
2023/05/01 05:25:23;;;;;;;2.97;1.80;;;20.80;37.70;;;;;;5066042;28;20499;-63
2023/05/01 05:27:49;;;;;;;2.40;1.77;;;20.80;37.70;;;;;;5067613;28;20115;-63
2023/05/01 05:30:15;;;;;;;2.58;1.63;;;20.80;37.70;;;;;;5064611;28;20044;-63
2023/05/01 05:32:42;;;;;;;2.95;1.65;;;20.80;38.30;;;;;;5064085;28;21271;-62
2023/05/01 05:35:08;;;;;;;2.60;1.77;;;20.80;37.70;;;;;;5064479;28;20179;-63
2023/05/01 05:37:34;;;;;;;3.25;1.90;;;20.80;37.60;;;;;;5047743;28;20029;-66
2023/05/01 05:40:00;;;;;;;2.67;1.52;;;20.80;37.60;;;;;;5066870;28;20025;-61
2023/05/01 05:42:28;;;;;;;2.10;1.60;;;20.80;37.60;;;;;;5065207;28;20040;-64
2023/05/01 05:44:54;;;;;;;2.60;1.60;;;20.80;37.60;;;;;;5056385;28;20052;-63
2023/05/01 05:47:20;;;;;;;2.78;1.50;;;20.80;37.60;;;;;;5045213;28;20436;-62
2023/05/01 05:49:47;;;;;;;3.08;1.67;;;20.80;37.60;;;;;;5044772;28;20116;-62
2023/05/01 05:52:13;;;;;;;2.55;1.42;;;20.80;37.60;;;;;;5046719;28;20025;-63
2023/05/01 05:54:39;;;;;;;2.25;1.50;;;20.80;37.60;;;;;;5045682;28;20563;-64
2023/05/01 05:57:05;;;;;;;3.13;1.75;;;20.80;37.60;;;;;;5049407;28;20069;-62
2023/05/01 05:59:32;;;;;;;3.03;1.60;;;20.80;37.70;;;;;;5047639;28;20025;-62
2023/05/01 06:01:58;;;;;;;3.45;1.60;;;20.80;37.70;;;;;;5046274;28;20104;-63
2023/05/01 06:04:24;;;;;;;2.85;1.70;;;20.80;37.70;;;;;;5045535;28;20033;-64
2023/05/01 06:06:49;;;;;;;3.03;1.60;;;20.80;37.70;;;;;;5044274;28;20116;-63
2023/05/01 06:09:17;;;;;;;2.97;1.60;;;20.80;37.70;;;;;;5046015;28;20044;-62
2023/05/01 06:11:44;;;;;;;3.25;1.73;;;20.80;37.70;;;;;;5045733;28;20033;-62
2023/05/01 06:14:11;;;;;;;2.63;1.60;;;20.80;37.70;;;;;;5046005;28;20040;-67
2023/05/01 06:16:37;;;;;;;4.45;1.73;;;20.80;37.70;;;;;;5046558;28;20447;-62
2023/05/01 06:19:03;;;;;;;2.35;1.63;;;20.80;37.60;;;;;;5041758;28;20186;-61
2023/05/01 06:21:30;;;;;;;3.90;1.50;;;20.80;37.60;;;;;;5046293;28;20283;-66
2023/05/01 06:23:57;;;;;;;2.08;1.58;;;20.90;37.60;;;;;;5045185;28;20043;-63
2023/05/01 06:26:30;;;;;;;2.53;1.55;;;20.80;37.60;;;;;;5041465;28;20502;-61
2023/05/01 06:28:56;;;;;;;2.47;1.58;;;20.80;37.60;;;;;;5039578;28;20108;-62
2023/05/01 06:31:22;;;;;;;2.67;1.65;;;20.80;37.60;;;;;;5041020;28;20033;-62
2023/05/01 06:33:52;;;;;;;2.90;1.63;;;20.80;37.60;;;;;;5040759;28;20029;-64
2023/05/01 06:36:25;;;;;;;1.92;1.40;;;20.80;37.70;;;;;;5047148;28;20087;-63
2023/05/01 06:38:51;;;;;;;4.80;1.80;;;20.80;37.70;;;;;;5045125;28;20029;-61
2023/05/01 06:41:17;;;;;;;3.00;1.67;;;20.80;37.70;;;;;;5045571;28;20341;-63
2023/05/01 06:43:44;;;;;;;3.67;1.83;;;20.80;37.70;;;;;;5044239;28;20040;-64
2023/05/01 06:46:11;;;;;;;3.60;1.80;;;20.80;37.70;;;;;;5044496;28;20045;-64
2023/05/01 06:48:37;;;;;;;2.47;1.50;;;20.80;37.70;;;;;;5045631;28;20043;-65
2023/05/01 06:51:03;;;;;;;1.73;1.20;;;20.80;37.80;;;;;;5046413;28;20119;-62
2023/05/01 06:53:28;;;;;;;2.53;1.42;;;20.80;37.80;;;;;;5048093;28;20017;-64
2023/05/01 06:55:55;;;;;;;2.53;1.85;;;20.80;37.90;;;;;;5045864;28;20033;-62
2023/05/01 06:58:21;;;;;;;2.00;1.25;;;20.90;38.00;;;;;;5046241;28;20104;-64
2023/05/01 07:00:46;;;;;;;2.50;1.60;;;20.80;38.00;;;;;;5046045;28;20327;-64
2023/05/01 07:03:12;;;;;;;1.73;1.40;;;20.90;38.00;;;;;;5043288;28;20055;-63
2023/05/01 07:05:39;;;;;;;2.50;1.45;;;20.90;38.00;;;;;;5046246;28;20463;-63
2023/05/01 07:08:05;;;;;;;1.77;1.30;;;20.90;37.90;;;;;;5045013;28;20080;-66
2023/05/01 07:10:31;;;;;;;3.13;1.60;;;20.90;37.80;;;;;;5030843;28;20430;-63
2023/05/01 07:12:58;;;;;;;2.05;1.30;;;20.90;37.70;;;;;;5050783;28;20052;-62
2023/05/01 07:15:24;;;;;;;2.00;1.40;;;20.90;37.60;;;;;;5049192;28;20036;-62
2023/05/01 07:17:51;;;;;;;2.75;1.40;;;20.90;37.60;;;;;;5050261;28;20440;-62
2023/05/01 07:20:17;;;;;;;3.17;1.90;;;20.90;37.50;;;;;;5049568;28;20059;-63
2023/05/01 07:22:43;;;;;;;2.17;1.20;;;20.90;37.40;;;;;;5047548;28;20075;-63
2023/05/01 07:25:08;;;;;;;2.13;1.30;;;20.90;37.40;;;;;;5047597;28;20121;-62
2023/05/01 07:27:34;;;;;;;2.17;1.30;;;20.90;37.30;;;;;;5045860;28;20052;-61
2023/05/01 07:30:02;;;;;;;3.03;1.70;;;20.90;37.30;;;;;;5044277;28;20214;-60
2023/05/01 07:32:29;;;;;;;2.78;1.52;;;20.90;37.40;;;;;;5045604;28;20033;-61
2023/05/01 07:34:55;;;;;;;2.33;1.25;;;20.90;37.40;;;;;;5042421;28;20044;-62
2023/05/01 07:37:21;;;;;;;3.03;1.45;;;20.90;37.40;;;;;;5044908;28;20025;-63
2023/05/01 07:39:47;;;;;;;2.88;1.60;;;20.90;37.30;;;;;;5045588;28;20084;-63
2023/05/01 07:42:12;;;;;;;2.17;1.30;;;20.90;37.30;;;;;;5046281;28;20029;-62
2023/05/01 07:44:38;;;;;;;2.33;1.40;;;20.90;37.20;;;;;;5057784;28;20058;-61
2023/05/01 07:47:05;;;;;;;2.47;1.40;;;20.90;37.20;;;;;;5083215;28;20183;-61
2023/05/01 07:49:37;;;;;;;2.78;1.23;;;20.90;37.20;;;;;;5066043;28;20039;-62
2023/05/01 07:52:07;;;;;;;1.77;1.20;;;20.90;37.10;;;;;;5067673;28;20316;-62
2023/05/01 07:54:33;;;;;;;1.33;1.15;;;20.90;37.10;;;;;;5066843;28;20024;-64
2023/05/01 07:57:00;;;;;;;3.40;1.77;;;21.00;37.10;;;;;;5073336;28;20028;-62
2023/05/01 07:59:27;;;;;;;3.30;1.45;;;20.90;37.00;;;;;;5091158;28;20356;-62
2023/05/01 08:01:53;;;;;;;3.55;1.48;;;21.00;37.10;;;;;;5069008;28;20391;-60
2023/05/01 08:04:21;;;;;;;2.60;1.13;;;21.00;37.00;;;;;;5090000;28;20093;-63
2023/05/01 08:06:49;;;;;;;2.67;1.30;;;21.00;37.00;;;;;;5068911;28;20123;-62
2023/05/01 08:09:15;;;;;;;2.22;1.20;;;21.00;37.00;;;;;;5085080;28;20412;-60
2023/05/01 08:11:41;;;;;;;1.88;1.17;;;21.00;37.00;;;;;;5085959;28;20065;-62
2023/05/01 08:14:06;;;;;;;2.70;1.30;;;21.00;37.00;;;;;;5085621;28;20038;-62
2023/05/01 08:16:33;;;;;;;2.13;1.40;;;21.00;36.90;;;;;;5079777;28;20024;-62
2023/05/01 08:18:59;;;;;;;2.67;1.25;;;21.00;36.90;;;;;;5081229;28;20436;-61
2023/05/01 08:21:25;;;;;;;2.30;1.23;;;21.00;37.00;;;;;;5084821;28;20083;-61
2023/05/01 08:23:53;;;;;;;3.97;1.48;;;21.00;37.00;;;;;;5088491;28;20085;-64
2023/05/01 08:26:20;;;;;;;2.67;1.40;;;21.00;37.00;;;;;;5089403;28;20164;-61
2023/05/01 08:28:46;;;;;;;2.40;1.33;;;21.10;37.00;;;;;;5089549;28;20351;-61
2023/05/01 08:31:12;;;;;;;3.10;1.30;;;21.10;37.00;;;;;;5088917;28;20054;-63
2023/05/01 08:33:40;;;;;;;2.53;1.27;;;21.10;37.00;;;;;;5087971;28;20024;-61
2023/05/01 08:36:09;;;;;;;2.92;1.38;;;21.10;37.00;;;;;;5089097;28;20032;-65
2023/05/01 08:38:35;;;;;;;2.35;1.50;;;21.10;37.00;;;;;;5088852;28;20396;-63
2023/05/01 08:41:02;;;;;;;3.13;1.38;;;21.10;37.00;;;;;;5089119;28;20016;-63
2023/05/01 08:43:31;;;;;;;3.05;1.35;;;21.10;37.00;;;;;;5087366;28;20043;-64
2023/05/01 08:46:01;;;;;;;2.70;1.30;;;21.10;37.00;;;;;;5086780;28;20102;-62
2023/05/01 08:48:28;;;;;;;2.58;1.38;;;21.20;37.00;;;;;;5088024;28;20024;-63
2023/05/01 08:50:58;;;;;;;2.75;1.20;;;21.10;36.90;;;;;;5070632;28;20055;-62
2023/05/01 08:53:26;;;;;;;1.52;1.15;;;21.20;37.00;;;;;;5070151;28;20039;-62
2023/05/01 08:55:55;;;;;;;2.40;1.40;;;21.20;37.00;;;;;;5089654;28;20120;-62
2023/05/01 08:58:23;;;;;;;2.35;1.58;;;21.20;37.00;;;;;;5089065;28;20292;-63
2023/05/01 09:00:49;;;;;;;2.05;1.20;;;21.20;37.00;;;;;;5070038;28;20354;-61
2023/05/01 09:03:16;;;;;;;2.50;1.10;;;21.20;37.00;;;;;;5089672;28;20288;-62
2023/05/01 09:05:42;;;;;;;3.35;1.45;;;21.20;37.00;;;;;;5088587;28;20111;-64
2023/05/01 09:08:08;;;;;;;1.83;1.20;;;21.20;37.00;;;;;;5088232;28;20162;-64
2023/05/01 09:10:40;;;;;;;3.25;1.40;;;21.20;36.90;;;;;;5070315;28;20088;-63
2023/05/01 09:13:08;;;;;;;2.15;1.30;;;21.30;37.00;;;;;;5069956;28;20206;-63
2023/05/01 09:15:34;;;;;;;2.72;1.45;;;21.30;37.00;;;;;;5088757;28;20052;-61
2023/05/01 09:18:00;;;;;;;1.98;1.25;;;21.30;36.90;;;;;;5087803;28;20119;-64
2023/05/01 09:20:27;;;;;;;1.63;1.10;;;21.30;36.90;;;;;;5087865;28;20110;-61
2023/05/01 09:22:56;;;;;;;1.30;0.95;;;21.30;36.90;;;;;;5088554;28;20434;-63
2023/05/01 09:25:22;;;;;;;1.70;0.98;;;21.30;36.80;;;;;;5067065;28;20115;-62
2023/05/01 09:27:48;;;;;;;1.98;1.10;;;21.30;36.80;;;;;;5070230;28;20043;-61
2023/05/01 09:30:36;;;;;;;1.65;1.00;;;21.30;36.80;;;;;;5053420;28;20119;-61
2023/05/01 09:33:13;;;;;;;2.17;1.20;;;21.40;36.80;;;;;;5088031;28;20012;-64
2023/05/01 09:35:50;;;;;;;1.73;1.27;;;21.40;36.80;;;;;;5069877;28;20092;-63
2023/05/01 09:38:18;;;;;;;1.83;1.20;;;21.40;36.80;;;;;;5049254;28;20040;-61
2023/05/01 09:40:44;;;;;;;1.45;0.93;;;21.40;36.80;;;;;;5070259;28;20039;-64
2023/05/01 09:43:10;;;;;;;1.65;0.90;;;21.40;36.80;;;;;;5088641;28;20028;-60
2023/05/01 09:45:36;;;;;;;2.42;1.17;;;21.40;36.80;;;;;;5088234;28;20115;-64
2023/05/01 09:48:11;;;;;;;2.25;1.20;;;21.40;36.70;;;;;;5067141;28;20074;-63
2023/05/01 09:50:41;;;;;;;2.10;1.30;;;21.50;36.80;;;;;;5088640;28;20426;-64
2023/05/01 09:53:07;;;;;;;2.40;1.25;;;21.50;36.80;;;;;;5068367;28;20027;-62
2023/05/01 09:55:33;;;;;;;3.63;1.20;;;21.50;36.80;;;;;;5088904;28;20114;-66
2023/05/01 09:57:59;;;;;;;1.40;0.95;;;21.50;36.90;;;;;;5088420;28;20024;-63
2023/05/01 10:00:25;;;;;;;1.75;1.10;;;21.50;36.90;;;;;;5088062;28;20051;-61
2023/05/01 10:02:52;;;;;;;1.60;1.20;;;21.50;36.90;;;;;;5086049;28;20043;-63
2023/05/01 10:05:18;;;;;;;1.90;1.20;;;21.50;37.00;;;;;;5089244;28;20016;-62
2023/05/01 10:08:04;;;;;;;2.00;1.30;;;21.50;37.00;;;;;;5091300;28;20024;-63
2023/05/01 10:10:30;;;;;;;1.83;1.20;;;21.50;37.00;;;;;;5091514;28;20019;-63
2023/05/01 10:13:13;;;;;;;1.20;0.85;;;21.50;37.00;;;;;;5092154;28;20366;-62
2023/05/01 10:15:39;;;;;;;2.05;1.10;;;21.60;37.10;;;;;;5071970;28;20039;-64
2023/05/01 10:18:08;;;;;;;1.80;1.00;;;21.60;37.10;;;;;;5091615;28;20095;-61
2023/05/01 10:20:34;;;;;;;1.55;1.10;;;21.60;37.10;;;;;;5073568;28;20032;-61
2023/05/01 10:23:04;;;;;;;2.58;1.42;;;21.60;37.20;;;;;;5088861;28;20333;-61
2023/05/01 10:25:31;;;;;;;2.28;1.08;;;21.60;37.20;;;;;;5087965;28;20092;-64
2023/05/01 10:27:58;;;;;;;2.47;1.20;;;21.60;37.20;;;;;;5090872;28;20478;-62
2023/05/01 10:30:25;;;;;;;2.85;1.38;;;21.60;37.40;;;;;;5073523;28;20032;-62
2023/05/01 10:32:51;;;;;;;3.92;1.77;;;21.70;37.60;;;;;;5086700;28;20048;-63
2023/05/01 10:35:37;;;;;;;2.60;1.20;;;21.70;37.70;;;;;;5090871;28;20032;-63
2023/05/01 10:38:12;;;;;;;2.20;1.30;;;21.70;37.70;;;;;;5085471;28;20029;-66
2023/05/01 10:40:38;;;;;;;2.50;1.33;;;21.70;37.80;;;;;;5066811;28;20104;-64
2023/05/01 10:43:19;;;;;;;1.88;1.10;;;21.70;37.80;;;;;;5088882;28;20032;-65
2023/05/01 10:45:47;;;;;;;1.70;1.10;;;21.70;37.70;;;;;;5085516;28;20123;-63
2023/05/01 10:48:41;;;;;;;2.28;1.15;;;21.80;37.80;;;;;;5067596;28;20023;-62
2023/05/01 10:51:14;;;;;;;1.27;1.08;;;21.80;37.80;;;;;;5068247;28;20047;-66
2023/05/01 10:53:41;;;;;;;1.45;1.08;;;21.80;37.80;;;;;;5079150;28;20078;-65
2023/05/01 10:56:26;;;;;;;3.58;1.27;;;21.80;37.80;;;;;;5078313;28;20024;-63
2023/05/01 10:59:03;;;;;;;1.80;1.10;;;21.80;37.80;;;;;;5083010;28;20044;-63
2023/05/01 11:01:34;;;;;;;2.33;1.05;;;21.80;37.80;;;;;;5061291;28;20024;-64
2023/05/01 11:04:25;;;;;;;2.10;1.13;;;21.80;37.80;;;;;;5079585;28;20031;-64
2023/05/01 11:07:06;;;;;;;1.98;1.02;;;21.90;37.90;;;;;;5056153;28;20044;-64
2023/05/01 11:09:48;;;;;;;1.67;1.10;;;21.90;37.90;;;;;;5085894;28;20098;-63
2023/05/01 11:12:34;;;;;;;1.98;0.98;;;21.90;37.80;;;;;;5079048;28;20048;-64
2023/05/01 11:15:02;;;;;;;2.15;1.20;;;21.90;37.70;;;;;;5060966;28;20426;-66
2023/05/01 11:17:40;;;;;;;2.53;0.77;;;21.90;37.70;;;;;;5081115;28;20366;-66
2023/05/01 11:20:11;;;;;;;1.90;1.08;;;21.90;37.70;;;;;;5085477;28;20025;-63
2023/05/01 11:22:44;;;;;;;2.35;1.20;;;22.00;37.70;;;;;;5067435;28;20032;-64
2023/05/01 11:25:21;;;;;;;1.50;0.95;;;21.90;37.50;;;;;;5062141;28;20020;-63
2023/05/01 11:27:56;;;;;;;1.98;0.80;;;22.00;37.50;;;;;;5064818;28;20324;-68
2023/05/01 11:30:24;;;;;;;2.45;1.10;;;22.00;37.50;;;;;;5082358;28;20466;-64
2023/05/01 11:32:52;;;;;;;1.52;1.20;;;22.00;37.50;;;;;;5085724;28;20031;-64
2023/05/01 11:35:26;;;;;;;1.02;0.75;;;22.00;37.50;;;;;;5061347;28;20056;-63
2023/05/01 11:37:55;;;;;;;1.80;0.90;;;22.00;37.30;;;;;;5083369;28;20104;-64
2023/05/01 11:40:23;;;;;;;1.70;0.90;;;22.00;37.10;;;;;;5085009;28;20028;-64
2023/05/01 11:42:58;;;;;;;1.33;0.77;;;22.00;36.80;;;;;;5091482;28;20115;-65
2023/05/01 11:45:25;;;;;;;1.75;0.77;;;22.10;36.80;;;;;;5053874;28;20040;-63
2023/05/01 11:47:51;;;;;;;0.90;0.68;;;22.00;36.50;;;;;;5069896;28;20130;-64
2023/05/01 11:50:17;;;;;;;0.77;0.52;;;22.00;36.40;;;;;;5069983;28;20072;-64
2023/05/01 11:52:51;;;;;;;2.45;0.88;;;22.10;36.30;;;;;;5087833;28;20020;-64
2023/05/01 11:55:17;;;;;;;;;;;22.10;36.20;;;;;;5090252;28;20036;-65
2023/05/01 11:57:52;;;;;;;1.50;0.68;;;22.10;36.10;;;;;;5076375;28;19961;-62
2023/05/01 12:00:35;;;;;;;1.60;0.70;;;22.10;36.10;;;;;;5091228;28;20331;-62
2023/05/01 12:03:07;;;;;;;1.83;0.93;;;22.10;36.50;;;;;;5091079;28;20024;-64
2023/05/01 12:05:38;;;;;;;1.05;0.70;;;22.20;37.00;;;;;;5088827;28;20064;-64
2023/05/01 12:08:19;;;;;;;1.80;1.08;;;22.10;37.30;;;;;;5090335;28;20436;-63
2023/05/01 12:11:03;;;;;;;1.80;0.90;;;22.20;37.60;;;;;;5087652;28;20028;-65
2023/05/01 12:13:29;;;;;;;1.60;0.93;;;22.20;37.60;;;;;;5085224;28;20020;-62
2023/05/01 12:15:56;;;;;;;4.07;0.93;;;22.20;37.50;;;;;;5081518;28;20312;-61
2023/05/01 12:18:23;;;;;;;1.58;0.80;;;22.20;37.40;;;;;;5088890;28;20074;-63
2023/05/01 12:20:51;;;;;;;1.33;0.88;;;22.30;37.60;;;;;;5072175;28;20362;-61
2023/05/01 12:23:18;;;;;;;2.53;0.68;;;22.30;37.70;;;;;;5084235;28;20157;-61
2023/05/01 12:25:45;;;;;;;3.15;1.17;;;22.30;37.70;;;;;;5067073;28;20119;-62
2023/05/01 12:28:19;;;;;;;1.00;0.70;;;22.30;37.80;;;;;;5083234;28;20032;-60
2023/05/01 12:30:47;;;;;;;2.00;0.90;;;22.40;37.80;;;;;;5084796;28;20085;-62
2023/05/01 12:33:22;;;;;;;2.08;1.00;;;22.40;37.80;;;;;;5037725;28;20323;-60
2023/05/01 12:35:49;;;;;;;1.70;0.90;;;22.40;37.70;;;;;;5061068;28;20446;-61
2023/05/01 12:38:17;;;;;;;1.60;0.80;;;22.40;37.60;;;;;;5083271;28;20089;-62
2023/05/01 12:40:58;;;;;;;1.27;0.80;;;22.40;37.50;;;;;;5082646;28;20059;-63
2023/05/01 12:43:35;;;;;;;2.22;1.00;;;22.40;37.40;;;;;;5082263;28;20066;-62
2023/05/01 12:46:02;;;;;;;1.05;0.80;;;22.40;37.30;;;;;;5082980;28;20052;-61
2023/05/01 12:48:31;;;;;;;1.73;0.70;;;22.50;37.30;;;;;;5084329;28;20474;-60
2023/05/01 12:51:00;;;;;;;0.85;0.65;;;22.50;37.30;;;;;;5084544;28;20031;-62
2023/05/01 12:53:27;;;;;;;1.17;0.80;;;22.50;37.20;;;;;;5083159;28;20411;-62
2023/05/01 12:55:55;;;;;;;1.30;0.82;;;22.50;37.20;;;;;;5068063;28;20054;-62
2023/05/01 12:58:22;;;;;;;2.28;0.95;;;22.50;37.20;;;;;;5081072;28;20048;-61